Meteo Giornale » Osservazioni meteo Svezia » Stockholm-Arlanda

ore: 13:50 - Osservazioni Meteo Stockholm-Arlanda
Lat. 59° 39' N Lon. 17° 57' E Alt. 38 metri s.l.m.

sereno Europe/Stockholm

17 °C

Sereno

Temp. 24 Ore

5 °C

18 °C

Ovest/Sud-Ovest

16.7 Km/h

Dew point 6 °C

Umidità 48 %

Visibilità  10 Km

Il sole sorge alle ore 03:24

Il sole tramonta alle ore 22:15

Data e Ora Cielo e Fenomeni T °C DP °C Um. % Pres. hPa Vis. km Vento km/h
Oggi h: 13:50 sereno Sereno 17 6 48 1007 10 O/SO 16.7
Oggi h: 13:20 molto_nuvoloso Molto Nuvoloso 17 6 48 1007 10 O 18.5
Oggi h: 12:50 sereno Sereno 17 5 45 1008 10 O/NO 20.3
Oggi h: 12:20 sereno Sereno 17 5 45 1008 10 O/SO 20.3
Oggi h: 11:50 sereno Sereno 16 4 44 1008 10 O/NO 11.1
Oggi h: 11:20 sereno Sereno 16 5 47 1008 10 SO 11.1
Oggi h: 10:50 sereno Sereno 15 5 51 1008 10 O/NO 13
Oggi h: 10:20 sereno Sereno 14 4 50 1009 10 O/NO 18.5
Oggi h: 09:50 sereno Sereno 14 4 50 1009 10 NO 11.1
Oggi h: 09:20 sereno Sereno 14 5 54 1009 10 N/NO 11.1
Oggi h: 08:50 sereno Sereno 13 4 54 1009 10 NO 11.1
Oggi h: 08:20 sereno Sereno 13 4 54 1009 10 N/NO 11.1
Oggi h: 07:50 sereno Sereno 13 4 54 1009 10 NO 14.8
Oggi h: 07:20 sereno Sereno 12 5 62 1009 10 N/NO 16.7
Oggi h: 06:50 sereno Sereno 12 5 62 1009 10 N/NO 14.8
Oggi h: 06:20 sereno Sereno 11 5 66 1009 10 N/NO 9.3
Oggi h: 05:50 sereno Sereno 9 6 81 1009 10 N 7.4
Oggi h: 05:20 sereno Sereno 7 7 100 1009 10 N/NO 7.4
Oggi h: 04:50 sereno Sereno 5 5 100 1009 10 N/NO 7.4
Oggi h: 04:20 sereno Sereno 5 5 100 1009 10 N 5.5
Oggi h: 03:50 sereno Sereno 5 5 100 1009 10 N 5.5
Oggi h: 03:20 sereno Sereno 5 5 100 1009 10 N 3.7
Oggi h: 02:50 sereno Sereno 6 5 93 1009 10 N 3.7
Oggi h: 02:20 sereno Sereno 7 6 93 1009 10 N 3.7
Oggi h: 01:50 sereno Sereno 7 6 93 1009 10 N 5.5
Oggi h: 01:20 sereno Sereno 9 6 81 1009 10 N 5.5
Oggi h: 00:50 sereno Sereno 9 7 87 1009 10 N 5.5
Oggi h: 00:20 sereno Sereno 10 6 76 1009 10 N 3.7
Ieri h: 23:50 sereno Sereno 13 6 62 1009 10 N 5.5
Ieri h: 23:20 sereno Sereno 12 6 66 1009 10 N 3.7
Ieri h: 22:50 sereno Sereno 12 7 71 1009 10 N 5.5
Ieri h: 22:20 sereno Sereno 13 6 62 1009 10 N 5.5
Ieri h: 21:50 sereno Sereno 14 6 58 1009 10 N/NE 9.3
Ieri h: 21:20 coperto_pioggia Pioviggine Leggera 14 9 71 1009 10 N 5.5
Ieri h: 20:50 sereno Sereno 15 6 54 1009 10 NO 7.4
Ieri h: 20:20 sereno Sereno 15 6 54 1009 10 NO 11.1
Ieri h: 19:50 sereno Sereno 16 5 47 1009 10 N/NO 7.4
Ieri h: 19:20 sereno Sereno 16 5 47 1009 10 N 14.8
Ieri h: 18:50 sereno Sereno 16 6 51 1009 10 N 11.1
Ieri h: 18:20 sereno Sereno 16 6 51 1009 10 N 22.2
Ieri h: 17:50 sereno Sereno 17 4 41 1009 10 O/NO 24
Ieri h: 17:20 sereno Sereno 18 3 36 1009 10 NO 20.3
Ieri h: 16:50 sereno Sereno 17 4 41 1009 10 NO 22.2
Ieri h: 16:20 sereno Sereno 15 5 51 1009 10 NO 27.8
Ieri h: 15:50 sereno Sereno 17 4 41 1009 10 O 25.9
Ieri h: 15:20 sereno Sereno 17 5 45 1009 10 O/NO 18.5
Ieri h: 14:50 nuvoloso Rovescio nelle Vicinanze 16 5 47 1009 10 NO 16.7